Time;durP1;ratioP1;P1;durP2;ratioP2;P2;SDS_P1;SDS_P2;PMS_P1;PMS_P2;Temp;Humidity;BMP_temperature;BMP_pressure;BME280_temperature;BME280_humidity;BME280_pressure;Samples;Min_cycle;Max_cycle;Signal;HPM_P1;HPM_P2
2021/04/13 00:00:23;;;;;;;19.82;12.03;;;;;;;8.29;81.56;101334.33;1718500;82;22402;-42
2021/04/13 00:02:54;;;;;;;19.90;11.55;;;;;;;8.29;81.60;101340.78;1749038;82;20931;-42
2021/04/13 00:05:35;;;;;;;19.05;11.18;;;;;;;8.28;81.63;101339.05;1749311;82;21419;-42
2021/04/13 00:08:13;;;;;;;14.35;10.72;;;;;;;8.30;81.60;101337.34;1749420;82;21043;-41
2021/04/13 00:10:50;;;;;;;28.40;11.33;;;;;;;8.29;81.46;101339.48;1721570;82;21002;-42
2021/04/13 00:13:19;;;;;;;16.80;11.10;;;;;;;8.28;81.38;101337.77;1720410;82;20999;-41
2021/04/13 00:15:56;;;;;;;19.48;10.38;;;;;;;8.29;81.26;101339.48;1696641;82;21014;-41
2021/04/13 00:18:27;;;;;;;20.02;11.10;;;;;;;8.32;81.16;101347.66;1749446;82;21081;-42
2021/04/13 00:20:59;;;;;;;23.02;10.28;;;;;;;8.31;81.04;101345.52;1749403;81;21541;-43
2021/04/13 00:23:27;;;;;;;18.45;10.68;;;;;;;8.32;81.02;101338.63;1749300;82;21391;-42
2021/04/13 00:26:04;;;;;;;21.33;10.18;;;;;;;8.32;80.90;101342.08;1749407;81;20982;-42
2021/04/13 00:28:48;;;;;;;21.05;11.05;;;;;;;8.33;80.81;101336.48;1749370;81;20944;-42
2021/04/13 00:31:48;;;;;;;19.95;10.65;;;;;;;8.32;80.79;101333.05;1739312;82;21038;-42
2021/04/13 00:34:33;;;;;;;23.40;9.73;;;;;;;8.33;80.68;101333.89;1719571;83;21014;-42
2021/04/13 00:37:25;;;;;;;18.35;10.45;;;;;;;8.33;80.59;101326.16;1719510;82;22283;-42
2021/04/13 00:40:17;;;;;;;21.12;9.93;;;;;;;8.34;80.50;101326.18;1720289;83;20931;-40
2021/04/13 00:42:45;;;;;;;17.87;10.32;;;;;;;8.34;80.40;101323.59;1698341;83;21003;-42
2021/04/13 00:45:18;;;;;;;22.52;10.70;;;;;;;8.34;80.35;101323.59;1720268;83;21084;-42
2021/04/13 00:47:46;;;;;;;19.23;9.58;;;;;;;8.34;80.25;101327.47;1720341;83;20979;-41
2021/04/13 00:50:33;;;;;;;22.73;10.88;;;;;;;8.32;80.17;101322.73;1719734;83;21201;-41
2021/04/13 00:53:05;;;;;;;24.32;12.68;;;;;;;8.33;80.21;101329.61;1693066;83;20963;-43
2021/04/13 00:55:37;;;;;;;39.55;12.98;;;;;;;8.29;80.38;101324.42;1719736;83;21054;-42
2021/04/13 00:58:33;;;;;;;27.98;12.18;;;;;;;8.25;80.51;101327.44;1719678;83;20998;-42
2021/04/13 01:01:20;;;;;;;30.08;11.85;;;;;;;8.25;80.60;101330.42;1719740;83;21034;-40
2021/04/13 01:04:01;;;;;;;21.10;9.43;;;;;;;8.24;80.67;101328.30;1719837;83;21202;-42
2021/04/13 01:06:25;;;;;;;28.85;10.58;;;;;;;8.25;80.76;101327.44;1719196;83;21010;-41
2021/04/13 01:09:08;;;;;;;19.25;10.13;;;;;;;8.25;80.74;101326.15;1719849;83;21452;-41
2021/04/13 01:11:45;;;;;;;22.13;9.75;;;;;;;8.25;80.72;101323.56;1719801;83;21567;-42
2021/04/13 01:14:13;;;;;;;20.52;10.32;;;;;;;8.25;80.69;101323.98;1712809;83;21034;-42
2021/04/13 01:16:59;;;;;;;18.55;8.90;;;;;;;8.27;80.58;101333.46;1719728;83;21303;-42
2021/04/13 01:20:02;;;;;;;19.35;9.43;;;;;;;8.27;80.55;101331.30;1694022;83;20975;-42
2021/04/13 01:22:58;;;;;;;21.95;9.20;;;;;;;8.27;80.53;101328.72;1719791;82;20975;-42
2021/04/13 01:25:26;;;;;;;16.52;8.95;;;;;;;8.28;80.43;101330.44;1719405;82;21061;-41
2021/04/13 01:28:00;;;;;;;15.88;8.83;;;;;;;8.27;80.31;101329.59;1719708;83;21413;-41
2021/04/13 01:30:37;;;;;;;19.87;9.13;;;;;;;8.28;80.31;101325.28;1719726;82;21046;-41
2021/04/13 01:33:11;;;;;;;;;;;;;;;8.27;80.24;101328.30;1722223;83;21046;-42
2021/04/13 01:35:46;;;;;;;17.30;9.28;;;;;;;8.27;80.21;101318.40;1719755;83;20136;-42
2021/04/13 01:38:32;;;;;;;22.75;9.40;;;;;;;8.27;80.17;101314.12;1713156;83;20968;-41
2021/04/13 01:41:08;;;;;;;19.90;9.35;;;;;;;8.27;80.13;101311.53;1706083;83;21118;-42
2021/04/13 01:43:37;;;;;;;24.20;9.85;;;;;;;8.27;80.14;101316.70;1706073;84;21054;-42
2021/04/13 01:46:06;;;;;;;32.03;10.75;;;;;;;8.27;80.14;101311.53;1706125;84;21023;-42
2021/04/13 01:48:34;;;;;;;39.30;11.57;;;;;;;8.27;80.16;101307.67;1686268;84;21066;-41
2021/04/13 01:51:05;;;;;;;26.70;10.90;;;;;;;8.27;80.19;101308.95;1706128;84;21050;-41
2021/04/13 01:53:42;;;;;;;36.95;12.68;;;;;;;8.26;80.33;101305.95;1706296;84;21584;-43
2021/04/13 01:56:20;;;;;;;32.70;10.95;;;;;;;8.27;80.24;101310.66;1706179;83;21369;-41
2021/04/13 01:58:59;;;;;;;29.18;11.20;;;;;;;8.25;80.25;101309.80;1686239;84;21019;-41
2021/04/13 02:01:32;;;;;;;35.23;10.93;;;;;;;8.24;80.31;101311.94;1706158;84;20976;-42
2021/04/13 02:04:22;;;;;;;28.85;10.40;;;;;;;8.22;80.42;101311.95;1706169;83;20995;-42
2021/04/13 02:06:59;;;;;;;42.83;11.22;;;;;;;8.22;80.47;101313.23;1706221;84;20944;-42
2021/04/13 02:09:41;;;;;;;23.62;10.28;;;;;;;8.22;80.48;101308.08;1706197;84;21398;-42
2021/04/13 02:12:15;;;;;;;27.60;11.75;;;;;;;8.20;80.56;101311.92;1706118;83;21004;-42
2021/04/13 02:15:03;;;;;;;23.77;10.63;;;;;;;8.19;80.59;101322.22;1706315;84;20991;-42
2021/04/13 02:17:40;;;;;;;27.52;10.20;;;;;;;8.17;80.67;101317.48;1695327;84;20967;-42
2021/04/13 02:20:12;;;;;;;23.40;10.28;;;;;;;8.14;80.76;101322.63;1706222;84;20964;-41
2021/04/13 02:22:47;;;;;;;25.52;11.43;;;;;;;8.13;80.79;101311.47;1706218;84;21207;-41
2021/04/13 02:25:26;;;;;;;27.45;11.15;;;;;;;8.12;80.86;101313.61;1706222;84;21035;-41
2021/04/13 02:27:54;;;;;;;30.12;10.90;;;;;;;8.12;80.96;101312.73;1706126;83;21051;-41
2021/04/13 02:30:35;;;;;;;28.52;11.18;;;;;;;8.09;81.03;101312.72;1686384;84;20971;-41
2021/04/13 02:33:20;;;;;;;29.37;11.25;;;;;;;8.08;81.13;101317.44;1706198;84;20955;-41
2021/04/13 02:35:48;;;;;;;23.18;10.48;;;;;;;8.08;81.16;101318.73;1706173;84;21216;-41
2021/04/13 02:38:26;;;;;;;26.52;10.03;;;;;;;8.08;81.27;101313.58;1710986;83;21038;-41
2021/04/13 02:41:05;;;;;;;16.60;8.60;;;;;;;8.07;81.17;101311.85;1719730;83;21540;-42
2021/04/13 02:43:37;;;;;;;12.07;8.35;;;;;;;8.07;81.09;101309.28;1693246;83;20951;-42
2021/04/13 02:46:07;;;;;;;19.17;8.38;;;;;;;8.04;80.99;101309.70;1719654;83;21029;-42
2021/04/13 02:48:41;;;;;;;12.03;7.97;;;;;;;8.04;81.01;101301.95;1719752;83;22259;-42
2021/04/13 02:51:06;;;;;;;18.05;7.60;;;;;;;8.04;80.99;101301.95;1719171;82;21121;-42
2021/04/13 02:53:56;;;;;;;18.52;8.05;;;;;;;8.03;80.93;101298.06;1719683;82;21449;-42
2021/04/13 02:56:36;;;;;;;20.23;8.53;;;;;;;8.04;80.99;101295.92;1696001;83;21724;-42
2021/04/13 02:59:13;;;;;;;17.37;8.25;;;;;;;8.03;80.96;101292.91;1719497;83;21034;-41
2021/04/13 03:01:42;;;;;;;;;;;;;;;8.02;80.96;101301.09;1722383;83;21452;-42
2021/04/13 03:04:10;;;;;;;17.12;8.28;;;;;;;8.01;80.99;101298.08;1719630;83;20152;-42
2021/04/13 03:06:40;;;;;;;19.60;8.10;;;;;;;7.98;81.05;101300.64;1719673;83;20949;-42
2021/04/13 03:09:07;;;;;;;13.13;7.80;;;;;;;7.97;81.10;101300.20;1719601;83;21578;-42
2021/04/13 03:11:36;;;;;;;18.00;7.37;;;;;;;7.96;81.18;101299.77;1719726;82;21054;-40
2021/04/13 03:14:04;;;;;;;14.33;8.15;;;;;;;7.96;81.27;101298.89;1719686;83;21476;-42
2021/04/13 03:16:37;;;;;;;14.28;7.85;;;;;;;7.95;81.30;101300.59;1719575;83;21077;-42
2021/04/13 03:19:10;;;;;;;18.92;7.50;;;;;;;7.94;81.42;101297.59;1719611;83;20959;-40
2021/04/13 03:21:42;;;;;;;14.38;8.40;;;;;;;7.93;81.38;101288.13;1719678;83;21580;-42
2021/04/13 03:24:11;;;;;;;14.68;7.92;;;;;;;7.93;81.55;101280.83;1719649;83;20931;-42
2021/04/13 03:26:51;;;;;;;15.28;8.85;;;;;;;7.94;81.58;101286.42;1693937;83;22293;-41
2021/04/13 03:29:29;;;;;;;13.58;8.30;;;;;;;7.93;81.65;101279.55;1693611;83;20967;-41
2021/04/13 03:31:58;;;;;;;17.62;7.67;;;;;;;7.93;81.73;101277.81;1719531;82;21515;-42
2021/04/13 03:34:26;;;;;;;20.45;7.80;;;;;;;7.93;81.74;101279.11;1719651;83;20990;-41
2021/04/13 03:36:56;;;;;;;15.38;7.40;;;;;;;7.95;81.72;101280.41;1719662;83;20991;-42
2021/04/13 03:39:28;;;;;;;14.83;8.30;;;;;;;7.96;81.75;101271.83;1710154;83;22420;-43
2021/04/13 03:41:56;;;;;;;15.88;8.18;;;;;;;7.96;81.72;101274.41;1706129;83;21687;-42
2021/04/13 03:44:23;;;;;;;16.05;8.40;;;;;;;7.96;81.77;101276.98;1706090;83;21555;-41
2021/04/13 03:46:52;;;;;;;14.80;8.65;;;;;;;7.95;81.74;101274.81;1706092;84;21007;-42
2021/04/13 03:49:34;;;;;;;10.45;7.17;;;;;;;7.94;81.76;101271.80;1706191;84;21509;-40
2021/04/13 03:52:16;;;;;;;23.10;8.38;;;;;;;7.95;81.75;101267.08;1706161;84;21376;-42
2021/04/13 03:54:43;;;;;;;14.60;7.83;;;;;;;7.95;81.86;101270.10;1705996;84;21166;-41
2021/04/13 03:57:11;;;;;;;13.20;7.35;;;;;;;7.93;81.96;101274.39;1706098;83;21003;-41
2021/04/13 03:59:44;;;;;;;16.48;7.40;;;;;;;7.94;81.98;101272.25;1706092;84;20936;-41
2021/04/13 04:02:12;;;;;;;15.20;8.13;;;;;;;7.95;81.97;101277.84;1706141;84;21003;-41
2021/04/13 04:04:44;;;;;;;20.37;8.18;;;;;;;7.98;81.99;101284.30;1706130;84;21213;-41
2021/04/13 04:07:24;;;;;;;16.07;8.88;;;;;;;8.00;82.03;101283.46;1705978;84;20920;-41
2021/04/13 04:09:50;;;;;;;14.78;8.30;;;;;;;8.03;81.99;101273.58;1706150;84;21015;-41
2021/04/13 04:12:23;;;;;;;14.13;7.60;;;;;;;8.09;81.99;101276.63;1706078;84;20996;-42
2021/04/13 04:15:01;;;;;;;14.80;8.18;;;;;;;8.13;81.88;101273.20;1706111;84;21035;-42
2021/04/13 04:17:32;;;;;;;15.70;8.35;;;;;;;8.19;81.85;101280.95;1706042;84;21205;-42
2021/04/13 04:20:09;;;;;;;15.00;8.85;;;;;;;8.25;81.76;101276.26;1705707;84;20984;-42
2021/04/13 04:22:49;;;;;;;16.32;8.85;;;;;;;8.27;81.71;101284.45;1706124;84;21079;-42
2021/04/13 04:25:34;;;;;;;14.05;7.70;;;;;;;8.32;81.58;101285.33;1706157;83;21157;-43
2021/04/13 04:28:07;;;;;;;14.33;7.93;;;;;;;8.38;81.53;101286.20;1706563;84;20932;-41
2021/04/13 04:30:35;;;;;;;12.05;8.05;;;;;;;8.43;81.43;101281.91;1706058;82;21389;-41
2021/04/13 04:33:04;;;;;;;13.98;8.60;;;;;;;8.46;81.32;101282.80;1706144;84;21027;-41
2021/04/13 04:35:42;;;;;;;12.40;8.53;;;;;;;8.48;81.19;101273.78;1686267;84;20960;-41
2021/04/13 04:38:30;;;;;;;21.55;9.18;;;;;;;8.54;81.24;101276.41;1706837;83;21577;-42
2021/04/13 04:41:06;;;;;;;22.40;9.50;;;;;;;8.62;81.04;101273.86;1719790;82;21018;-42
2021/04/13 04:43:54;;;;;;;;;;;;;;;8.74;80.92;101273.03;1722349;83;21377;-42
2021/04/13 04:46:35;;;;;;;16.95;8.78;;;;;;;8.82;80.73;101279.47;1719144;83;20644;-41
2021/04/13 04:49:17;;;;;;;16.30;8.93;;;;;;;8.93;80.58;101264.88;1847600;76;22672;-42
2021/04/13 04:51:52;;;;;;;13.18;9.08;;;;;;;8.97;80.39;101270.89;1817856;79;20998;-41
2021/04/13 04:54:21;;;;;;;16.40;9.25;;;;;;;9.04;80.13;101272.20;1817812;78;21355;-41
2021/04/13 04:56:49;;;;;;;20.50;9.70;;;;;;;9.12;79.96;101276.08;1817782;79;22262;-42
2021/04/13 04:59:18;;;;;;;15.10;10.18;;;;;;;9.19;79.71;101272.63;1817767;79;20986;-41
2021/04/13 05:01:47;;;;;;;16.50;9.98;;;;;;;9.25;79.48;101283.41;1817780;78;21563;-41
2021/04/13 05:04:15;;;;;;;15.13;9.78;;;;;;;9.30;79.20;101284.71;1817830;79;21586;-42
2021/04/13 05:06:43;;;;;;;15.90;9.65;;;;;;;9.31;78.82;101283.84;1817743;78;21396;-42
2021/04/13 05:09:11;;;;;;;14.38;9.20;;;;;;;9.32;78.72;101286.86;1817653;79;20939;-42
2021/04/13 05:11:40;;;;;;;15.13;9.80;;;;;;;9.33;78.71;101282.97;1817719;78;21002;-42
2021/04/13 05:14:09;;;;;;;16.62;9.88;;;;;;;9.37;78.59;101283.84;1786697;79;21073;-43
2021/04/13 05:16:37;;;;;;;17.65;9.53;;;;;;;9.42;78.51;101285.14;1817813;78;20947;-42
2021/04/13 05:19:07;;;;;;;18.60;10.55;;;;;;;9.45;78.34;101282.10;1817740;79;21525;-41
2021/04/13 05:21:35;;;;;;;19.37;9.78;;;;;;;9.49;78.26;101282.56;1817705;78;20986;-42
2021/04/13 05:24:06;;;;;;;14.68;9.70;;;;;;;9.54;78.17;101281.24;1817717;78;21058;-42
2021/04/13 05:26:34;;;;;;;19.30;10.55;;;;;;;9.56;77.94;101282.55;1817667;78;20990;-42
2021/04/13 05:29:04;;;;;;;22.17;10.78;;;;;;;9.58;77.72;101280.81;1817706;79;20946;-42
2021/04/13 05:31:32;;;;;;;19.02;10.15;;;;;;;9.59;77.54;101279.50;1804435;78;21368;-42
2021/04/13 05:34:00;;;;;;;22.73;10.53;;;;;;;9.61;77.45;101276.52;1785376;80;20990;-42
2021/04/13 05:36:27;;;;;;;18.95;11.38;;;;;;;9.64;77.32;101279.52;1785503;80;21037;-42
2021/04/13 05:38:55;;;;;;;21.70;10.75;;;;;;;9.63;77.09;101279.08;1785484;80;21092;-42
2021/04/13 05:41:23;;;;;;;18.85;10.18;;;;;;;9.64;77.03;101279.52;1785551;80;20990;-41
2021/04/13 05:43:50;;;;;;;18.20;9.90;;;;;;;9.67;77.07;101283.38;1785548;80;21193;-42
2021/04/13 05:46:24;;;;;;;13.18;10.48;;;;;;;9.71;77.15;101288.13;1785499;80;20986;-42
2021/04/13 05:48:53;;;;;;;19.77;9.95;;;;;;;9.73;77.00;101285.98;1785428;79;20938;-42
2021/04/13 05:51:21;;;;;;;16.37;11.28;;;;;;;9.74;76.99;101281.23;1785441;80;20982;-43
2021/04/13 05:53:49;;;;;;;15.80;9.83;;;;;;;9.80;76.91;101289.84;1785544;80;21436;-42
2021/04/13 05:56:19;;;;;;;19.07;9.58;;;;;;;9.82;76.78;101290.70;1785529;80;21383;-42
2021/04/13 05:58:51;;;;;;;15.95;10.35;;;;;;;9.82;76.76;101290.70;1785279;80;21057;-42
2021/04/13 06:01:20;;;;;;;20.45;10.95;;;;;;;9.85;76.76;101290.69;1784970;80;20990;-42
2021/04/13 06:03:50;;;;;;;21.42;10.65;;;;;;;9.89;76.55;101291.98;1784872;79;20935;-42
2021/04/13 06:06:17;;;;;;;15.55;10.08;;;;;;;9.92;76.51;101291.09;1784918;80;20970;-42
2021/04/13 06:08:46;;;;;;;15.63;10.55;;;;;;;9.95;76.45;101296.70;1784909;80;21194;-42
2021/04/13 06:11:24;;;;;;;21.33;11.03;;;;;;;9.97;76.18;101303.57;1784846;80;21089;-42
2021/04/13 06:13:55;;;;;;;18.45;11.53;;;;;;;9.94;76.20;101303.58;1784944;80;21026;-42
2021/04/13 06:16:26;;;;;;;23.47;11.18;;;;;;;9.96;76.11;101304.89;1784973;80;21574;-43
2021/04/13 06:18:53;;;;;;;19.12;11.10;;;;;;;9.98;76.12;101306.62;1784959;79;21034;-40
2021/04/13 06:21:21;;;;;;;20.68;11.25;;;;;;;10.00;76.14;101306.18;1784996;79;21193;-40
2021/04/13 06:23:49;;;;;;;17.80;11.48;;;;;;;10.06;76.03;101307.86;1784892;80;20920;-42
2021/04/13 06:26:16;;;;;;;19.02;10.93;;;;;;;10.02;75.95;101297.98;1784907;80;21002;-42
2021/04/13 06:28:45;;;;;;;17.17;11.63;;;;;;;10.05;76.04;101304.44;1784901;80;21030;-42
2021/04/13 06:31:13;;;;;;;22.27;10.95;;;;;;;10.12;75.98;101305.70;1784878;79;20967;-41
2021/04/13 06:33:40;;;;;;;22.42;11.95;;;;;;;10.20;75.93;101300.94;1784976;80;21362;-41
2021/04/13 06:36:08;;;;;;;19.40;10.82;;;;;;;10.30;75.72;101299.18;1784855;80;20899;-41
2021/04/13 06:38:37;;;;;;;20.00;13.32;;;;;;;10.38;75.46;101298.28;1784978;80;21610;-41
2021/04/13 06:41:34;;;;;;;21.45;12.23;;;;;;;10.41;75.15;101295.71;1784856;79;20994;-41
2021/04/13 06:44:31;;;;;;;17.82;11.03;;;;;;;10.42;75.07;101305.19;1785028;80;21594;-41
2021/04/13 06:47:33;;;;;;;20.15;12.85;;;;;;;10.51;74.96;101305.59;1785137;79;21408;-43
2021/04/13 06:50:51;;;;;;;23.65;13.25;;;;;;;10.52;74.69;101305.59;1784898;80;21026;-41
2021/04/13 06:53:31;;;;;;;24.85;13.15;;;;;;;10.57;74.76;101307.72;1784892;79;21033;-43
2021/04/13 06:56:39;;;;;;;22.42;12.43;;;;;;;10.66;74.59;101310.70;1784875;80;21005;-43
2021/04/13 06:59:37;;;;;;;21.02;13.20;;;;;;;10.71;74.27;101312.83;1783010;80;20962;-42
2021/04/13 07:02:21;;;;;;;24.80;13.40;;;;;;;10.66;73.79;101315.01;1784854;80;21195;-43
2021/04/13 07:05:15;;;;;;;61.48;14.95;;;;;;;10.61;73.90;101326.25;1784858;80;20962;-43
2021/04/13 07:07:52;;;;;;;54.30;13.75;;;;;;;10.63;74.07;101312.86;1784745;80;20935;-41
2021/04/13 07:10:29;;;;;;;22.77;12.55;;;;;;;10.67;73.88;101309.84;1785039;79;21455;-41
2021/04/13 07:13:22;;;;;;;24.25;12.55;;;;;;;10.69;73.48;101312.40;1784932;80;21443;-41
2021/04/13 07:16:17;;;;;;;20.40;13.35;;;;;;;10.66;73.81;101313.72;1784858;80;20983;-42
2021/04/13 07:19:10;;;;;;;25.27;13.18;;;;;;;10.74;73.96;101314.56;1764518;79;20971;-41
2021/04/13 07:22:09;;;;;;;23.52;14.20;;;;;;;10.79;73.72;101315.39;1784848;80;21061;-41
2021/04/13 07:25:00;;;;;;;58.52;17.95;;;;;;;10.80;73.70;101314.94;1784858;79;20966;-42
2021/04/13 07:27:48;;;;;;;36.58;16.02;;;;;;;10.80;73.60;101308.05;1784827;80;20887;-41
2021/04/13 07:30:26;;;;;;;25.08;14.55;;;;;;;10.86;73.60;101305.41;1784858;80;21352;-41
2021/04/13 07:32:56;;;;;;;195.85;27.80;;;;;;;10.90;73.70;101303.67;1780451;80;21013;-41
2021/04/13 07:35:31;;;;;;;41.10;16.20;;;;;;;11.01;73.41;101301.85;1784868;80;21002;-42
2021/04/13 07:38:02;;;;;;;39.83;16.50;;;;;;;11.07;73.45;101300.96;1784802;80;21002;-41
2021/04/13 07:40:36;;;;;;;24.12;14.63;;;;;;;11.10;73.04;101306.12;1754729;80;21025;-42
2021/04/13 07:43:20;;;;;;;;;;;;;;;11.15;73.01;101300.91;1787494;80;21130;-42
2021/04/13 07:46:07;;;;;;;35.78;16.75;;;;;;;11.17;72.96;101306.94;1784798;80;20135;-42
2021/04/13 07:48:46;;;;;;;64.25;19.65;;;;;;;11.19;72.82;101311.22;1788556;79;21507;-42
2021/04/13 07:51:41;;;;;;;33.00;17.12;;;;;;;11.20;72.61;101307.76;1796801;79;20990;-42
2021/04/13 07:54:34;;;;;;;34.08;17.35;;;;;;;11.21;72.56;101316.41;1797171;79;21001;-41
2021/04/13 07:57:12;;;;;;;46.58;16.87;;;;;;;11.23;72.53;101314.66;1796823;79;21194;-43
2021/04/13 08:00:04;;;;;;;28.47;15.68;;;;;;;11.26;72.49;101324.16;1796722;78;21029;-42
2021/04/13 08:02:33;;;;;;;27.80;16.25;;;;;;;11.32;72.38;101317.63;1795882;79;21029;-43
2021/04/13 08:05:02;;;;;;;35.33;16.57;;;;;;;11.32;72.07;101315.88;1770324;79;21064;-42
2021/04/13 08:07:39;;;;;;;25.52;16.23;;;;;;;11.35;72.00;101315.00;1796943;79;21561;-42
2021/04/13 08:10:33;;;;;;;29.82;16.12;;;;;;;11.41;71.91;101316.70;1796528;79;22494;-42
2021/04/13 08:13:06;;;;;;;23.67;15.13;;;;;;;11.49;71.75;101314.47;1773630;79;20942;-41
2021/04/13 08:15:44;;;;;;;24.10;15.93;;;;;;;11.60;71.57;101310.91;1796771;79;21001;-41
2021/04/13 08:18:32;;;;;;;26.02;14.63;;;;;;;11.68;71.22;101303.91;1796726;79;21029;-42
2021/04/13 08:21:25;;;;;;;28.95;15.15;;;;;;;11.72;70.77;101304.30;1764847;79;20990;-43
2021/04/13 08:23:54;;;;;;;35.50;15.60;;;;;;;11.72;70.71;101308.19;1760150;79;21386;-41
2021/04/13 08:26:36;;;;;;;25.27;15.05;;;;;;;11.81;70.61;101298.62;1796785;78;21010;-41
2021/04/13 08:29:49;;;;;;;30.35;16.15;;;;;;;11.92;70.67;101300.64;1796787;79;21053;-42
2021/04/13 08:32:50;;;;;;;22.82;16.32;;;;;;;12.04;69.97;101298.39;1796785;78;21021;-42
2021/04/13 08:35:37;;;;;;;26.62;16.48;;;;;;;12.19;69.81;101294.76;1796886;78;21021;-42
2021/04/13 08:38:28;;;;;;;38.98;16.67;;;;;;;12.16;69.53;101288.31;1796951;79;21475;-42
2021/04/13 08:41:12;;;;;;;27.98;14.00;;;;;;;12.35;69.20;101289.81;1796490;79;21045;-42
2021/04/13 08:44:23;;;;;;;27.98;16.15;;;;;;;12.64;68.82;101287.72;1796881;79;20914;-41
2021/04/13 08:46:59;;;;;;;31.52;18.70;;;;;;;12.91;67.75;101288.20;1796803;79;20986;-42
2021/04/13 08:49:47;;;;;;;33.42;18.42;;;;;;;13.11;67.09;101283.11;1790224;79;21002;-41
2021/04/13 08:52:36;;;;;;;35.28;17.60;;;;;;;13.38;66.44;101284.42;1784846;80;21407;-42
2021/04/13 08:55:23;;;;;;;30.27;18.80;;;;;;;13.60;66.06;101279.72;1744511;80;21029;-42
2021/04/13 08:58:17;;;;;;;28.80;18.00;;;;;;;13.74;64.63;101274.72;1784858;80;21468;-42
2021/04/13 09:00:48;;;;;;;29.80;17.50;;;;;;;13.76;64.03;101270.34;1784863;79;20947;-43
2021/04/13 09:03:22;;;;;;;22.70;15.72;;;;;;;13.85;63.43;101267.56;1784882;80;20970;-43
2021/04/13 09:06:12;;;;;;;21.55;15.28;;;;;;;13.92;63.30;101267.00;1784961;80;22267;-41
2021/04/13 09:08:55;;;;;;;27.67;16.17;;;;;;;13.83;62.76;101265.43;1784724;80;21038;-42
2021/04/13 09:11:49;;;;;;;26.25;14.45;;;;;;;13.64;63.19;101269.70;1784828;80;21010;-43
2021/04/13 09:15:01;;;;;;;28.40;15.48;;;;;;;13.53;63.15;101266.88;1784733;80;21022;-42
2021/04/13 09:17:38;;;;;;;24.25;16.12;;;;;;;13.25;63.86;101262.97;1782541;80;20891;-41
2021/04/13 09:20:29;;;;;;;23.10;15.80;;;;;;;13.06;64.60;101259.36;1785062;80;21421;-42
2021/04/13 09:23:30;;;;;;;37.20;16.95;;;;;;;12.96;64.15;101259.10;1784291;80;20946;-41
2021/04/13 09:26:22;;;;;;;26.23;16.30;;;;;;;12.96;64.41;101259.10;1784771;80;21009;-42
2021/04/13 09:28:54;;;;;;;33.80;17.17;;;;;;;12.94;64.63;101256.52;1784385;80;20954;-42
2021/04/13 09:31:32;;;;;;;37.28;18.20;;;;;;;12.93;64.67;101244.41;1784820;79;21592;-42
2021/04/13 09:34:12;;;;;;;29.40;17.75;;;;;;;12.94;64.89;101250.48;1782873;80;21209;-42
2021/04/13 09:37:10;;;;;;;28.27;16.93;;;;;;;12.99;64.72;101246.48;1784912;80;20939;-42
2021/04/13 09:40:03;;;;;;;28.05;16.35;;;;;;;13.05;64.77;101242.51;1784981;80;21006;-42
2021/04/13 09:43:18;;;;;;;30.40;16.90;;;;;;;13.05;64.56;101247.25;1785093;79;20962;-43
2021/04/13 09:46:16;;;;;;;24.20;16.62;;;;;;;13.10;64.42;101247.19;1785001;80;20939;-42
2021/04/13 09:49:07;;;;;;;27.10;16.30;;;;;;;13.02;64.09;101244.70;1785813;79;21328;-43
2021/04/13 09:52:24;;;;;;;25.32;15.18;;;;;;;12.92;64.46;101247.89;1799368;78;20938;-42
2021/04/13 09:55:00;;;;;;;25.88;15.03;;;;;;;12.84;64.58;101244.56;1799484;79;21124;-42
2021/04/13 09:58:11;;;;;;;21.02;14.53;;;;;;;12.94;64.29;101248.72;1774804;79;21108;-42
2021/04/13 10:01:16;;;;;;;20.30;13.25;;;;;;;13.01;63.60;101241.69;1799479;79;21025;-43
2021/04/13 10:03:59;;;;;;;19.15;12.85;;;;;;;12.99;63.65;101236.09;1799449;79;21354;-42
2021/04/13 10:06:36;;;;;;;19.60;13.03;;;;;;;13.02;63.46;101239.97;1798382;79;21021;-42
2021/04/13 10:09:15;;;;;;;17.77;11.80;;;;;;;13.16;62.83;101239.73;1799500;79;21609;-43
2021/04/13 10:12:14;;;;;;;20.37;11.55;;;;;;;13.32;62.50;101237.73;1796839;79;21554;-43
2021/04/13 10:15:15;;;;;;;16.00;11.83;;;;;;;13.50;61.81;101240.02;1799310;79;20958;-43
2021/04/13 10:17:57;;;;;;;19.12;10.98;;;;;;;13.67;61.62;101242.75;1799465;79;21142;-42
2021/04/13 10:21:14;;;;;;;17.20;10.82;;;;;;;13.96;60.58;101242.63;1852075;77;22243;-42
2021/04/13 10:24:30;;;;;;;18.55;10.28;;;;;;;14.03;59.29;101240.33;1819824;78;21046;-42
2021/04/13 10:27:46;;;;;;;16.30;9.73;;;;;;;14.06;58.76;101246.77;1749952;82;21146;-42
2021/04/13 10:30:53;;;;;;;23.22;10.78;;;;;;;14.05;58.53;101246.36;1820012;78;21361;-42
2021/04/13 10:33:37;;;;;;;;;;;;;;;13.96;58.76;101247.83;1714357;81;20936;-41
2021/04/13 10:36:51;;;;;;;20.62;11.18;;;;;;;13.93;59.18;101247.89;1717951;83;20163;-41
2021/04/13 10:40:01;;;;;;;12.65;8.30;;;;;;;13.88;59.52;101248.44;1787409;80;20982;-42
2021/04/13 10:43:11;;;;;;;13.68;9.18;;;;;;;13.93;58.38;101245.30;1756301;81;21421;-41
2021/04/13 10:46:07;;;;;;;14.68;9.13;;;;;;;14.03;57.89;101248.14;1756296;81;21482;-41
2021/04/13 10:49:07;;;;;;;12.97;8.50;;;;;;;14.05;58.06;101250.70;1756583;81;21070;-41
2021/04/13 10:52:13;;;;;;;18.80;7.92;;;;;;;14.09;57.72;101243.23;1757023;80;21021;-42
2021/04/13 10:55:06;;;;;;;12.63;5.62;;;;;;;14.15;57.45;101246.16;1724226;83;21074;-42
2021/04/13 10:58:01;;;;;;;11.90;6.15;;;;;;;14.25;56.97;101245.53;1847662;76;22769;-42
2021/04/13 11:00:51;;;;;;;17.62;5.95;;;;;;;14.21;56.85;101246.02;1817746;77;21010;-43
2021/04/13 11:04:15;;;;;;;11.30;6.28;;;;;;;14.26;57.09;101249.84;1817031;78;21354;-42
2021/04/13 11:07:11;;;;;;;28.25;6.25;;;;;;;14.33;56.94;101243.61;1817672;78;21058;-41
2021/04/13 11:10:12;;;;;;;16.73;5.60;;;;;;;14.47;56.26;101241.57;1817992;79;21002;-41
2021/04/13 11:13:19;;;;;;;9.08;5.62;;;;;;;14.37;56.12;101242.64;1817739;79;21535;-42
2021/04/13 11:16:15;;;;;;;12.65;5.58;;;;;;;14.33;56.31;101239.27;1792804;78;21041;-42
2021/04/13 11:19:18;;;;;;;9.28;5.80;;;;;;;14.46;56.63;101237.25;1785537;79;21193;-43
2021/04/13 11:22:44;;;;;;;9.20;5.30;;;;;;;14.63;55.96;101240.77;1785468;80;21333;-42
2021/04/13 11:25:37;;;;;;;14.35;5.65;;;;;;;14.66;55.45;101238.09;1785534;79;20975;-43
2021/04/13 11:28:34;;;;;;;10.72;6.30;;;;;;;14.66;55.15;101243.30;1811135;79;21025;-41
2021/04/13 11:31:22;;;;;;;11.70;5.78;;;;;;;14.61;55.42;101241.25;1809903;78;21134;-43
2021/04/13 11:34:05;;;;;;;7.87;5.55;;;;;;;14.58;55.38;101240.03;1788202;79;21194;-41
2021/04/13 11:36:44;;;;;;;9.15;6.28;;;;;;;14.46;55.35;101243.77;1815570;79;20917;-41
2021/04/13 11:39:59;;;;;;;16.82;7.60;;;;;;;14.33;55.66;101246.21;1815685;78;20996;-42
2021/04/13 11:42:40;;;;;;;10.18;6.62;;;;;;;14.23;55.78;101246.84;1812954;79;21063;-41
2021/04/13 11:45:23;;;;;;;13.55;5.87;;;;;;;14.11;56.22;101243.22;1814907;79;20924;-41
2021/04/13 11:48:21;;;;;;;8.00;6.00;;;;;;;14.10;56.51;101240.20;1814918;78;22251;-43
2021/04/13 11:51:08;;;;;;;13.93;6.30;;;;;;;14.11;56.48;101236.25;1815464;79;20997;-42
2021/04/13 11:53:42;;;;;;;10.03;6.45;;;;;;;14.05;56.40;101239.86;1815596;78;21029;-41
2021/04/13 11:57:02;;;;;;;8.18;6.28;;;;;;;14.12;56.36;101233.22;1815847;79;22664;-43
2021/04/13 11:59:30;;;;;;;8.95;5.80;;;;;;;14.15;56.71;101234.45;1789018;80;21662;-41
2021/04/13 12:02:25;;;;;;;18.45;6.47;;;;;;;14.21;55.71;101231.28;1788885;80;22400;-43
2021/04/13 12:04:54;;;;;;;16.67;6.05;;;;;;;14.21;56.24;101234.31;1788821;80;20966;-41
2021/04/13 12:07:48;;;;;;;8.85;6.00;;;;;;;14.14;56.33;101227.53;1788906;80;20995;-42
2021/04/13 12:10:37;;;;;;;13.98;6.33;;;;;;;14.12;56.40;101228.01;1788840;80;20994;-42
2021/04/13 12:13:09;;;;;;;16.60;6.72;;;;;;;14.09;56.62;101223.70;1788788;80;20927;-42
2021/04/13 12:15:54;;;;;;;12.25;5.67;;;;;;;14.05;56.31;101226.84;1788930;80;22291;-41
2021/04/13 12:18:41;;;;;;;12.33;7.28;;;;;;;14.04;56.42;101227.73;1788870;80;21002;-41
2021/04/13 12:21:28;;;;;;;9.53;5.95;;;;;;;14.00;56.43;101227.81;1788825;80;21034;-42
2021/04/13 12:24:03;;;;;;;14.40;5.87;;;;;;;13.84;56.12;101227.27;1788813;80;21073;-41